Pagrindinis puslapis
METAR-TAF:

METAR-TAF

Oro uostai :

Resolute, Nunavutas, Kanada

platuma: 74-43N, ilguma: 094-59W, Aukštis: 67 m

Dabartinis oras

Ataskaita buvo paskelbta 29 minutes, ne 13:00 UTC
Vėjas 2 kt nuo kintamojo kryptimis
Temperatūra -26°C
Drėgmė 83%
Slėgis 1005 hPa
Matomumas: 16.1 km
Giedras dangus
ledo kristalai

METAR: CYRB 071300Z VRB02KT 10SM IC SKC M26/M28 A2969 RMK SLP068

Laikas: 07:29 (13:29 UTC)

Prognozė

Ataskaita buvo paskelbta 1 valandą ir 51 minutes, ne 11:38 UTC
Prognozė galioja nuo 07 metu 12 UTC su 08 metu 12 UTC
Vėjas 10 kt iš Šiaurės Rytų
Matomumas: 10 km
Mažai debesys ne aukštis 3000 ft
ledo kristalai
Tapsmas
nuo 07 metu 16 UTC su 07 metu 18 UTC
Vėjas 10 kt iš Šiaurės
Nuo 08 metu 0600 UTC
Vėjas 10 kt iš Šiaurės Vakarų
Matomumas: 10 km
Mažai debesys ne aukštis 3000 ft
ledo kristalai

TAF: CYRB 071138Z 0712/0812 04010KT P6SM IC FEW030 BECMG 0716/0718 36010KT FM080600 32010KT P6SM IC FEW030 RMK NXT FCST BY 071800Z

Orai ataskaitas ir orų prognozės (METAR, TAF).

turimą stotys yra geltonos ir raudonos taškus žemėlapyje.

Perkelti pele per norėdami pamatyti stoties vardą.

Tada spustelėkite, norėdami matyti oro stebėjimo ir prognozės.

Norėdami pakeisti žemėlapį: spustelėkite ant žalios mygtukų su juodo kryžiaus žemyn,; žalią mygtuką su brūkšneliu, jei norite nutolinti; arba žalių rodyklių gretimoms žemėlapius.


METAR-TAF: